x

Columbia River Bar - 20nm West Of Columbia River Mouth (46029) Wave Buoy

5:50 - Sat 20th Dec 2014 All times are PST. -8 hours from GMT.

  • Sig Wave height 22.6ft
  • Swell Direction
  • Peak Period 17s
  • Average Period 9s
  • Wind
    31mph, 40mph gusts
  • Sea Temp 56°f
  • Air Temp 55°f
  • Sea Pressure 1000.1mb
  • Columbia River Bar - 20nm West Of Columbia River Mouth
  • Columbia River Bar - 20nm West Of Columbia River Mouth

More Historic Weather Station data

Upgrade to MSW Pro to gain access to the past 30 days of data for over 8000 Wavebouys and Weather Stations around the globe.

Join Pro

Comparision Forecast

View Surf forecast
   
sam. 12/20 5:50 22.5ft 17s 9s 31 40 mph 1000.1mb 56f 55f
4:50 19.5ft 17s 9s 31 38 mph 1000.2mb 56f 54f
3:50 19.5ft 16s 9s 36 45 mph 1001.5mb 56f 53f
2:50 22ft 16s 10s 31 38 mph 1003.6mb 56f 53f
1:50 17ft 17s 9s 31 36 mph 1004.5mb 56f 53f
12:50 16.5ft 15s 9s 34 38 mph 1005.7mb 56f 53f
ven. 12/19 11:50 15.5ft 16s 8s 34 40 mph 1006.8mb 56f 53f
10:50 16.5ft 16s 9s 27 34 mph 1008mb 56f 53f
9:50 18ft 17s 10s 27 31 mph 1008.7mb 56f 52f
8:50 14ft 15s 9s 22 29 mph 1009.2mb 56f 53f
7:50 15ft 17s 9s 22 29 mph 1010.5mb 56f 54f
6:50 15.5ft 16s 10s 25 29 mph 1011.2mb 56f 54f
5:50 15.5ft 19s 10s 22 27 mph 1011.9mb 55f 54f
4:50 14ft 19s 9s 22 27 mph 1012.3mb 55f 53f
3:50 14ft 19s 9s 20 25 mph 1011.9mb 55f 54f
2:50 14ft 19s 9s 20 22 mph 1012.4mb 55f 54f
1:50 13ft 19s 10s 20 25 mph 1012.5mb 55f 54f
12:50 13ft 19s 9s 16 18 mph 1012.9mb 55f 52f
11:50 11ft 19s 8s 27 31 mph 1013.1mb 55f 51f
10:50 12ft 19s 8s 22 27 mph 1013mb 55f 54f
9:50 13ft 19s 8s 22 25 mph 1012.2mb 55f 53f
8:50 11.5ft 11s 8s 20 25 mph 1011.7mb 54f 53f
7:50 11.5ft 11s 7s 16 20 mph 1011mb 54f 53f
6:50 11ft 11s 7s 18 20 mph 1010.4mb 55f 52f
5:50 11ft 10s 7s 20 25 mph 1009.8mb 54f 53f
4:50 11.5ft 10s 7s 22 25 mph 1009.3mb 54f 52f
3:50 11ft 10s 7s 25 31 mph 1009.2mb 54f 51f
2:50 12ft 10s 7s 25 27 mph 1009mb 54f 53f
1:50 12ft 10s 7s 22 27 mph 1008.3mb 54f 53f
12:50 12ft 10s 7s 20 25 mph 1007.9mb 54f 53f
jeu. 12/18 11:50 11ft 10s 7s 20 25 mph 1007.6mb 54f 54f
10:50 14.5ft 10s 8s 20 27 mph 1007.2mb 54f 54f
9:50 15ft 10s 8s 20 25 mph 1006.6mb 54f 54f
8:50 15ft 11s 8s 18 22 mph 1006.5mb 54f 53f
7:50 14ft 9s 7s 20 25 mph 1005.7mb 54f 51f
6:50 15.5ft 9s 8s 18 22 mph 1004.8mb 54f 52f
5:50 15.5ft 9s 7s 27 34 mph 1004.2mb 54f 52f
4:50 14ft 8s 7s 36 45 mph 1003.6mb 54f 54f
3:50 13ft 8s 6s 36 43 mph 1004.4mb 54f 53f
2:50 12ft 8s 6s 36 47 mph 1004.7mb 54f 55f
1:50 10.5ft 13s 6s 31 40 mph 1005.7mb 54f 55f
12:50 10.5ft 13s 6s 29 36 mph 1006.8mb 54f 55f
11:50 9.5ft 14s 6s 29 34 mph 1007.2mb 54f 54f
10:50 8ft 13s 6s 31 36 mph 1007.8mb 54f 54f
9:50 8.5ft 14s 6s 27 34 mph 1008.7mb 55f 52f
8:50 7.5ft 12s 7s 25 29 mph 1009.3mb 55f 53f
7:50 8ft 11s 7s 22 29 mph 1009.9mb 54f 53f
6:50 9ft 12s 7s 22 25 mph 1010.8mb 54f 53f
5:50 9.5ft 14s 7s 20 25 mph 1011.2mb 54f 51f
4:50 9.5ft 11s 8s 22 27 mph 1011.1mb 55f 53f
3:50 10.5ft 12s 9s 16 20 mph 1012mb 55f 53f
2:50 10ft 13s 9s 11 13 mph 1012.8mb 55f 52f
1:50 10.5ft 14s 10s 9 11 mph 1012.3mb 55f 51f
12:50 10.5ft 14s 10s 4 7 mph 1012.5mb 55f 51f
mer. 12/17 11:50 9ft 13s 9s 4 7 mph 1012.9mb 55f 51f
10:50 9ft 14s 9s 7 11 mph 1012.7mb 55f 51f
9:50 9.5ft 14s 10s 11 13 mph 1012.5mb 55f 51f
8:50 9.5ft 14s 10s 7 9 mph 1012.4mb 55f 51f
7:50 9.5ft 14s 10s 7 9 mph 1012.1mb 55f 51f
6:50 10ft 14s 10s 7 11 mph 1011.6mb 55f 51f
5:50 10.5ft 15s 10s 4 9 mph 1011.3mb 55f 50f
4:50 11ft 15s 10s 7 9 mph 1010.8mb 55f 50f
3:50 9ft 14s 9s 9 11 mph 1010.1mb 55f 50f
2:50 9.5ft 11s 9s 4 7 mph 1009.6mb 55f 51f
1:50 10ft 15s 10s 2 7 mph 1009.2mb 55f 51f
12:50 10ft 13s 10s 2 4 mph 1009.4mb 55f 52f
11:50 10.5ft 13s 10s 2 7 mph 1009.2mb 55f 52f
10:50 10ft 12s 10s 7 9 mph 1009.4mb 55f 52f
9:50 10ft 14s 10s 7 11 mph 1008.8mb 55f 52f
8:50 10.5ft 14s 10s 9 13 mph 1007.7mb 55f 51f
7:50 9.5ft 12s 10s 7 9 mph 1007.7mb 55f 51f
6:50 8ft 14s 9s 9 13 mph 1007.6mb 54f 51f
5:50 9ft 12s 9s 9 11 mph 1007.5mb 55f 51f
4:50 9ft 10s 8s 9 11 mph 1007.3mb 54f 51f
3:50 7.5ft 12s 8s 13 18 mph 1007.1mb 54f 51f
2:50 7ft 12s 8s 13 16 mph 1007.2mb 55f 51f
1:50 7ft 12s 8s 7 9 mph 1007.3mb 55f 52f
12:50 7ft 13s 8s 7 9 mph 1007.9mb 55f 52f
mar. 12/16 11:50 8ft 12s 8s 7
mph
1008.1mb 56f 52f
10:50 7ft 12s 7s 11 13 mph 1008.4mb 56f 52f
9:50 7.5ft 13s 8s 13 16 mph 1007.9mb 56f 53f
8:50 9ft 11s 8s 13 18 mph 1007.8mb 56f 53f
7:50 8ft 13s 8s 16 18 mph 1007.8mb 56f 53f
6:50 9ft 12s 8s 16 20 mph 1007.7mb 56f 53f
5:50 8.5ft 12s 7s 16 20 mph 1007.7mb 56f 53f
4:50 9.5ft 12s 8s 16 20 mph 1007.5mb 56f 53f
3:50 9ft 12s 8s 16 20 mph 1007.4mb 56f 53f
2:50 9ft 13s 8s 13 16 mph 1007.5mb 56f 54f